createdAt,value
2019-01-24T00:01:31.936Z,16.33
2019-01-24T00:04:16.995Z,19.90
2019-01-24T00:07:01.830Z,23.87
2019-01-24T00:09:46.019Z,25.23
2019-01-24T00:12:31.066Z,17.27
2019-01-24T00:15:15.939Z,23.20
2019-01-24T00:18:00.159Z,23.23
2019-01-24T00:20:45.070Z,24.30
2019-01-24T00:23:30.167Z,22.20
2019-01-24T00:26:15.102Z,20.83
2019-01-24T00:28:59.368Z,23.03
2019-01-24T00:31:44.273Z,22.70
2019-01-24T00:34:28.507Z,22.13
2019-01-24T00:37:12.718Z,24.23
2019-01-24T00:39:56.919Z,23.53
2019-01-24T00:42:41.202Z,16.77
2019-01-24T00:45:25.471Z,20.63
2019-01-24T00:48:09.640Z,22.97
2019-01-24T00:50:52.095Z,20.60
2019-01-24T00:53:43.498Z,17.87
2019-01-24T00:56:27.769Z,21.27
2019-01-24T00:59:11.987Z,20.03
2019-01-24T01:01:57.108Z,16.43
2019-01-24T01:04:41.363Z,24.07
2019-01-24T01:07:26.173Z,24.40
2019-01-24T01:10:10.994Z,23.53
2019-01-24T01:12:56.004Z,17.83
2019-01-24T01:15:40.830Z,25.53
2019-01-24T01:18:25.788Z,22.50
2019-01-24T01:21:10.030Z,22.37
2019-01-24T01:23:54.898Z,24.40
2019-01-24T01:26:39.730Z,25.60
2019-01-24T01:29:24.727Z,26.03
2019-01-24T01:32:09.694Z,22.77
2019-01-24T01:34:54.691Z,22.43
2019-01-24T01:37:39.721Z,23.23
2019-01-24T01:40:24.762Z,25.37
2019-01-24T01:43:08.920Z,24.83
2019-01-24T01:45:53.797Z,24.97
2019-01-24T01:48:38.856Z,22.40
2019-01-24T01:51:23.959Z,24.57
2019-01-24T01:54:09.003Z,25.20
2019-01-24T01:56:53.198Z,25.47
2019-01-24T01:59:37.323Z,25.97
2019-01-24T02:02:22.318Z,22.67
2019-01-24T02:05:06.526Z,24.57
2019-01-24T02:07:50.737Z,17.90
2019-01-24T02:10:35.023Z,23.57
2019-01-24T02:13:19.928Z,25.00
2019-01-24T02:16:05.046Z,23.87
2019-01-24T02:18:49.293Z,26.67
2019-01-24T02:21:33.497Z,24.10
2019-01-24T02:24:17.719Z,20.87
2019-01-24T02:27:02.749Z,23.30
2019-01-24T02:29:47.816Z,20.47
2019-01-24T02:32:31.997Z,21.57
2019-01-24T02:35:16.333Z,25.30
2019-01-24T02:38:01.334Z,25.07
2019-01-24T02:40:46.380Z,23.73
2019-01-24T02:43:31.490Z,23.77
2019-01-24T02:46:16.478Z,23.37
2019-01-24T02:49:01.393Z,26.47
2019-01-24T02:51:45.599Z,22.30
2019-01-24T02:54:30.466Z,24.40
2019-01-24T02:57:15.389Z,25.93
2019-01-24T03:00:00.360Z,21.93
2019-01-24T03:02:45.441Z,23.90
2019-01-24T03:05:30.459Z,14.10
2019-01-24T03:08:14.590Z,25.90
2019-01-24T03:10:58.742Z,22.53
2019-01-24T03:13:41.143Z,22.30
2019-01-24T03:16:32.483Z,26.50
2019-01-24T03:19:17.216Z,22.90
2019-01-24T03:22:02.246Z,27.67
2019-01-24T03:24:47.317Z,26.23
2019-01-24T03:27:29.845Z,25.73
2019-01-24T03:30:21.284Z,25.93
2019-01-24T03:33:05.883Z,24.70
2019-01-24T03:35:48.512Z,24.43
2019-01-24T03:38:33.150Z,20.43
2019-01-24T03:41:17.992Z,22.83
2019-01-24T03:44:00.449Z,23.97
2019-01-24T03:46:44.971Z,21.77
2019-01-24T03:49:29.868Z,24.27
2019-01-24T03:52:14.637Z,27.43
2019-01-24T03:54:59.619Z,25.03
2019-01-24T03:57:44.258Z,26.67
2019-01-24T04:00:29.293Z,23.97
2019-01-24T04:03:14.023Z,24.50
2019-01-24T04:05:59.071Z,24.63
2019-01-24T04:08:43.457Z,17.43
2019-01-24T04:11:28.512Z,25.23
2019-01-24T04:14:13.630Z,24.83
2019-01-24T04:16:58.379Z,24.57
2019-01-24T04:19:43.426Z,25.73
2019-01-24T04:22:28.350Z,20.97
2019-01-24T04:25:13.325Z,25.20
2019-01-24T04:27:58.322Z,27.77
2019-01-24T04:30:43.246Z,25.57
2019-01-24T04:33:28.249Z,25.67
2019-01-24T04:36:12.546Z,26.57
2019-01-24T04:38:56.837Z,25.53
2019-01-24T04:41:41.766Z,26.50
2019-01-24T04:44:26.051Z,19.23
2019-01-24T04:47:11.025Z,19.40
2019-01-24T04:49:53.509Z,27.53
2019-01-24T04:52:44.973Z,26.47
2019-01-24T04:55:29.207Z,27.00
2019-01-24T04:58:14.209Z,26.57
2019-01-24T05:00:58.434Z,20.03
2019-01-24T05:03:43.474Z,27.33
2019-01-24T05:06:28.522Z,28.03
2019-01-24T05:09:13.487Z,25.83
2019-01-24T05:11:56.132Z,28.27
2019-01-24T05:14:40.575Z,24.90
2019-01-24T05:17:25.549Z,23.97
2019-01-24T05:20:08.993Z,19.87
2019-01-24T05:23:00.326Z,28.23
2019-01-24T05:25:44.699Z,27.53
2019-01-24T05:28:28.951Z,25.57
2019-01-24T05:31:14.018Z,27.57
2019-01-24T05:33:58.955Z,27.13
2019-01-24T05:36:43.901Z,27.93
2019-01-24T05:39:28.963Z,25.90
2019-01-24T05:42:13.991Z,23.73
2019-01-24T05:44:58.235Z,15.67
2019-01-24T05:47:42.400Z,27.43
2019-01-24T05:50:27.447Z,26.03
2019-01-24T05:53:12.457Z,28.27
2019-01-24T05:55:57.500Z,20.50
2019-01-24T05:58:42.291Z,27.67
2019-01-24T06:01:27.793Z,27.17
2019-01-24T06:04:12.264Z,27.03
2019-01-24T06:06:57.276Z,27.97
2019-01-24T06:09:42.225Z,29.83
2019-01-24T06:12:26.434Z,26.77
2019-01-24T06:15:11.450Z,22.93
2019-01-24T06:17:53.885Z,29.77
2019-01-24T06:20:38.700Z,29.00
2019-01-24T06:23:23.703Z,27.83
2019-01-24T06:25:55.373Z,26.97
2019-01-24T06:28:46.719Z,25.63
2019-01-24T06:31:30.913Z,27.50
2019-01-24T06:34:16.047Z,28.40
2019-01-24T06:37:01.225Z,29.17
2019-01-24T06:39:46.368Z,17.57
2019-01-24T06:42:28.778Z,27.70
2019-01-24T06:45:20.621Z,24.27
2019-01-24T06:48:05.142Z,13.87
2019-01-24T06:50:50.242Z,28.80
2019-01-24T06:53:35.186Z,31.00
2019-01-24T06:56:17.610Z,11.60
2019-01-24T06:59:08.932Z,27.43
2019-01-24T07:01:53.499Z,27.70
2019-01-24T07:04:38.493Z,28.93
2019-01-24T07:07:23.462Z,24.00
2019-01-24T07:10:08.433Z,26.10
2019-01-24T07:12:52.699Z,28.17
2019-01-24T07:15:37.134Z,28.77
2019-01-24T07:18:22.106Z,24.97
2019-01-24T07:21:06.267Z,23.40
2019-01-24T07:23:50.476Z,28.13
2019-01-24T07:26:35.593Z,22.83
2019-01-24T07:29:20.790Z,24.00
2019-01-24T07:32:05.749Z,20.20
2019-01-24T07:34:50.746Z,21.67
2019-01-24T07:37:35.773Z,21.60
2019-01-24T07:40:20.050Z,23.87
2019-01-24T07:43:05.231Z,23.40
2019-01-24T07:45:49.489Z,25.13
2019-01-24T07:48:34.460Z,25.40
2019-01-24T07:51:18.585Z,25.27
2019-01-24T07:54:02.735Z,23.10
2019-01-24T07:56:45.242Z,25.30
2019-01-24T07:59:36.582Z,23.00
2019-01-24T08:02:21.127Z,24.83
2019-01-24T08:05:06.095Z,24.83
2019-01-24T08:07:50.916Z,25.70
2019-01-24T08:10:35.677Z,27.10
2019-01-24T08:13:20.713Z,23.93
2019-01-24T08:15:52.394Z,27.03
2019-01-24T08:18:43.713Z,27.27
2019-01-24T08:21:28.430Z,14.17
2019-01-24T08:24:00.149Z,17.23
2019-01-24T08:26:51.492Z,23.80
2019-01-24T08:29:42.835Z,16.03
2019-01-24T08:32:27.501Z,20.30
2019-01-24T08:35:12.390Z,23.43
2019-01-24T08:37:56.773Z,24.93
2019-01-24T08:40:41.794Z,24.33
2019-01-24T08:43:26.933Z,25.07
2019-01-24T08:46:11.121Z,19.43
2019-01-24T08:48:56.177Z,21.60
2019-01-24T08:51:41.291Z,23.77
2019-01-24T08:54:26.325Z,23.40
2019-01-24T08:57:10.607Z,23.93
2019-01-24T08:59:54.797Z,20.57
2019-01-24T09:02:39.140Z,19.83
2019-01-24T09:05:24.201Z,19.73
2019-01-24T09:08:09.310Z,14.57
2019-01-24T09:10:53.541Z,22.80
2019-01-24T09:13:35.937Z,23.00
2019-01-24T09:16:27.315Z,25.97
2019-01-24T09:19:12.079Z,21.87
2019-01-24T09:21:56.238Z,20.53
2019-01-24T09:24:41.327Z,23.70
2019-01-24T09:27:26.338Z,23.17
2019-01-24T09:30:11.321Z,23.67
2019-01-24T09:33:00.229Z,21.77
2019-01-24T09:35:50.777Z,24.17
2019-01-24T09:38:36.322Z,21.90
2019-01-24T09:41:21.649Z,21.90
2019-01-24T09:44:06.732Z,22.37
2019-01-24T09:46:51.639Z,20.07
2019-01-24T09:49:36.585Z,14.63
2019-01-24T09:52:21.451Z,21.17
2019-01-24T09:55:05.704Z,15.77
2019-01-24T09:57:50.605Z,20.27
2019-01-24T10:00:39.068Z,20.53
2019-01-24T10:03:23.676Z,20.07
2019-01-24T10:06:08.146Z,19.90
2019-01-24T10:08:50.614Z,20.23
2019-01-24T10:11:41.949Z,20.20
2019-01-24T10:14:26.176Z,21.30
2019-01-24T10:17:14.267Z,17.40
2019-01-24T10:19:59.162Z,18.80
2019-01-24T10:22:30.819Z,19.63
2019-01-24T10:25:41.852Z,21.03
2019-01-24T10:28:13.798Z,20.67
2019-01-24T10:31:05.145Z,22.30
2019-01-24T10:33:49.346Z,22.27
2019-01-24T10:36:34.437Z,22.77
2019-01-24T10:39:21.599Z,22.00
2019-01-24T10:41:53.312Z,23.30
2019-01-24T10:44:25.147Z,22.33
2019-01-24T10:46:56.865Z,19.63
2019-01-24T10:49:28.522Z,20.53
2019-01-24T10:52:00.145Z,21.23
2019-01-24T10:54:31.793Z,22.67
2019-01-24T10:57:03.721Z,22.97
2019-01-24T10:59:35.419Z,22.17
2019-01-24T11:02:07.137Z,20.70
2019-01-24T11:04:38.781Z,20.87
2019-01-24T11:07:30.111Z,16.97
2019-01-24T11:10:14.812Z,20.67
2019-01-24T11:12:57.355Z,15.33
2019-01-24T11:15:42.117Z,17.87
2019-01-24T11:18:26.981Z,21.23
2019-01-24T11:21:11.178Z,18.60
2019-01-24T11:23:58.229Z,18.10
2019-01-24T11:26:42.606Z,18.80
2019-01-24T11:29:26.808Z,19.20
2019-01-24T11:32:09.252Z,20.63
2019-01-24T11:34:53.984Z,17.50
2019-01-24T11:37:38.276Z,20.53
2019-01-24T11:40:23.368Z,19.87
2019-01-24T11:43:07.635Z,20.50
2019-01-24T11:45:51.847Z,14.27
2019-01-24T11:48:34.366Z,19.27
2019-01-24T11:51:19.105Z,11.37
2019-01-24T11:54:03.400Z,20.47
2019-01-24T11:56:47.674Z,19.63
2019-01-24T11:59:30.187Z,19.30
2019-01-24T12:02:21.514Z,20.37
2019-01-24T12:05:06.289Z,14.20
2019-01-24T12:07:50.510Z,20.37
2019-01-24T12:10:35.510Z,17.50
2019-01-24T12:13:19.721Z,19.90
2019-01-24T12:16:04.777Z,19.60
2019-01-24T12:18:49.749Z,13.80
2019-01-24T12:21:34.851Z,20.13
2019-01-24T12:24:19.860Z,18.37
2019-01-24T12:27:04.909Z,19.47
2019-01-24T12:29:49.163Z,19.43
2019-01-24T12:32:31.606Z,19.37
2019-01-24T12:35:16.251Z,17.90
2019-01-24T12:38:00.567Z,19.90
2019-01-24T12:40:44.849Z,19.27
2019-01-24T12:43:29.008Z,18.20
2019-01-24T12:46:14.123Z,18.83
2019-01-24T12:48:58.448Z,19.57
2019-01-24T12:51:43.286Z,19.63
2019-01-24T12:54:28.282Z,17.97
2019-01-24T12:57:12.461Z,19.10
2019-01-24T12:59:56.678Z,19.63
2019-01-24T13:02:41.665Z,17.87
2019-01-24T13:05:26.731Z,18.13
2019-01-24T13:08:11.619Z,19.77
2019-01-24T13:10:56.669Z,19.40
2019-01-24T13:13:40.922Z,19.73
2019-01-24T13:16:25.862Z,21.80
2019-01-24T13:19:10.917Z,18.53
2019-01-24T13:21:55.958Z,19.20
2019-01-24T13:24:40.898Z,19.30
2019-01-24T13:27:25.926Z,21.77
2019-01-24T13:29:57.578Z,21.80
2019-01-24T13:32:48.944Z,22.17
2019-01-24T13:35:40.334Z,20.73
2019-01-24T13:38:31.674Z,20.03
2019-01-24T13:41:16.741Z,20.30
2019-01-24T13:44:00.962Z,21.83
2019-01-24T13:46:46.056Z,19.40
2019-01-24T13:49:31.247Z,19.33
2019-01-24T13:52:15.537Z,21.27
2019-01-24T13:55:00.518Z,22.33
2019-01-24T13:57:32.296Z,25.17
2019-01-24T14:00:24.630Z,23.13
2019-01-24T14:03:41.764Z,23.87
2019-01-24T14:06:21.903Z,24.70
2019-01-24T14:09:06.693Z,23.50
2019-01-24T14:11:51.329Z,29.97
2019-01-24T14:14:36.390Z,23.50
2019-01-24T14:17:21.405Z,29.97
2019-01-24T14:20:06.261Z,29.67
2019-01-24T14:22:51.021Z,26.67
2019-01-24T14:25:33.467Z,29.03
2019-01-24T14:28:18.017Z,29.70
2019-01-24T14:31:03.078Z,32.93
2019-01-24T14:33:47.692Z,29.63
2019-01-24T14:36:32.835Z,31.43
2019-01-24T14:39:17.634Z,26.77
2019-01-24T14:42:02.694Z,29.87
2019-01-24T14:44:47.769Z,31.10
2019-01-24T14:47:32.658Z,29.17
2019-01-24T14:50:16.866Z,25.87
2019-01-24T14:53:01.748Z,31.17
2019-01-24T14:55:47.075Z,27.73
2019-01-24T14:58:31.234Z,27.43
2019-01-24T15:01:15.398Z,29.67
2019-01-24T15:04:00.515Z,29.40
2019-01-24T15:06:45.613Z,29.63
2019-01-24T15:09:29.823Z,31.67
2019-01-24T15:12:14.744Z,29.20
2019-01-24T15:14:59.835Z,29.17
2019-01-24T15:17:44.761Z,31.07
2019-01-24T15:20:29.900Z,28.10
2019-01-24T15:23:14.919Z,36.20
2019-01-24T15:25:59.937Z,26.90
2019-01-24T15:28:42.410Z,29.53
2019-01-24T15:31:33.724Z,29.70
2019-01-24T15:34:18.260Z,29.23
2019-01-24T15:37:02.491Z,30.10
2019-01-24T15:39:47.522Z,23.43
2019-01-24T15:42:32.614Z,29.47
2019-01-24T15:45:17.588Z,27.07
2019-01-24T15:48:02.619Z,29.30
2019-01-24T15:50:47.630Z,29.83
2019-01-24T15:53:30.143Z,21.63
2019-01-24T15:56:21.551Z,28.27
2019-01-24T15:59:05.789Z,27.60
2019-01-24T16:01:51.023Z,30.10
2019-01-24T16:04:35.959Z,26.53
2019-01-24T16:07:21.014Z,27.57
2019-01-24T16:10:05.963Z,29.50
2019-01-24T16:12:51.019Z,28.03
2019-01-24T16:15:36.026Z,31.10
2019-01-24T16:18:20.935Z,25.33
2019-01-24T16:21:05.791Z,30.03
2019-01-24T16:23:50.765Z,28.60
2019-01-24T16:26:35.634Z,26.53
2019-01-24T16:29:20.561Z,27.20
2019-01-24T16:32:05.346Z,29.30
2019-01-24T16:34:51.630Z,29.23
2019-01-24T16:37:36.361Z,26.67
2019-01-24T16:40:20.650Z,26.93
2019-01-24T16:43:05.707Z,26.10
2019-01-24T16:45:50.809Z,30.57
2019-01-24T16:48:35.608Z,26.23
2019-01-24T16:51:21.751Z,25.73
2019-01-24T16:54:06.144Z,29.73
2019-01-24T16:56:48.896Z,29.80
2019-01-24T16:59:33.426Z,26.30
2019-01-24T17:02:18.927Z,30.93
2019-01-24T17:05:03.618Z,27.17
2019-01-24T17:07:46.170Z,28.40
2019-01-24T17:10:30.984Z,29.67
2019-01-24T17:13:15.994Z,27.73
2019-01-24T17:15:58.546Z,29.60
2019-01-24T17:18:43.211Z,27.40
2019-01-24T17:21:27.424Z,26.73
2019-01-24T17:24:11.616Z,29.33
2019-01-24T17:26:55.903Z,28.10
2019-01-24T17:29:40.038Z,27.53
2019-01-24T17:32:24.451Z,29.03
2019-01-24T17:35:09.343Z,27.17
2019-01-24T17:37:54.401Z,26.33
2019-01-24T17:43:42.838Z,29.07
2019-01-24T17:46:27.838Z,28.47
2019-01-24T17:49:12.899Z,24.70
2019-01-24T17:51:57.826Z,31.13
2019-01-24T17:54:42.731Z,28.83
2019-01-24T17:57:25.218Z,31.63
2019-01-24T18:00:10.760Z,29.10
2019-01-24T18:02:55.751Z,29.80
2019-01-24T18:05:40.530Z,27.40
2019-01-24T18:08:31.236Z,32.90
2019-01-24T18:11:11.455Z,28.93
2019-01-24T18:13:56.408Z,30.67
2019-01-24T18:16:41.267Z,30.90
2019-01-24T18:19:26.297Z,28.00
2019-01-24T18:22:11.377Z,29.03
2019-01-24T18:24:57.188Z,32.47
2019-01-24T18:27:41.681Z,31.17
2019-01-24T18:30:26.675Z,29.83
2019-01-24T18:33:10.927Z,29.50
2019-01-24T18:35:55.971Z,28.03
2019-01-24T18:38:40.878Z,29.00
2019-01-24T18:41:25.917Z,28.37
2019-01-24T18:44:08.372Z,26.27
2019-01-24T18:46:52.928Z,28.27
2019-01-24T18:49:37.179Z,28.53
2019-01-24T18:52:22.262Z,30.63
2019-01-24T18:55:07.376Z,26.73
2019-01-24T18:57:52.303Z,27.93
2019-01-24T19:00:39.636Z,28.93
2019-01-24T19:03:24.433Z,26.20
2019-01-24T19:06:08.786Z,23.77
2019-01-24T19:08:53.689Z,26.80
2019-01-24T19:11:38.619Z,25.87
2019-01-24T19:14:23.475Z,25.17
2019-01-24T19:17:08.512Z,27.10
2019-01-24T19:19:53.366Z,26.63
2019-01-24T19:22:37.806Z,26.63
2019-01-24T19:31:29.211Z,28.13
2019-01-24T19:34:13.426Z,25.13
2019-01-24T19:36:58.552Z,26.87
2019-01-24T19:39:42.849Z,24.43
2019-01-24T19:42:27.916Z,27.40
2019-01-24T19:48:29.894Z,30.40
2019-01-24T19:51:14.895Z,30.20
2019-01-24T19:53:59.927Z,28.87
2019-01-24T19:56:44.807Z,27.53
2019-01-24T19:59:29.876Z,27.67
2019-01-24T20:02:14.118Z,27.53
2019-01-24T20:04:59.183Z,29.73
2019-01-24T20:07:44.234Z,31.27
2019-01-24T20:10:28.416Z,29.53
2019-01-24T20:13:13.292Z,32.47
2019-01-24T20:15:58.425Z,27.03
2019-01-24T20:18:43.466Z,30.13
2019-01-24T20:21:28.503Z,27.87
2019-01-24T20:24:13.489Z,31.30
2019-01-24T20:26:57.624Z,30.60
2019-01-24T20:29:41.995Z,30.13
2019-01-24T20:32:26.886Z,31.53
2019-01-24T20:35:11.896Z,26.57
2019-01-24T20:37:56.970Z,31.80
2019-01-24T20:40:41.145Z,31.23
2019-01-24T20:43:23.752Z,27.80
2019-01-24T20:46:15.113Z,29.80
2019-01-24T20:48:59.547Z,31.63
2019-01-24T20:51:41.981Z,28.07
2019-01-24T20:54:33.444Z,26.97
2019-01-24T20:57:18.017Z,27.37
2019-01-24T21:00:00.499Z,29.43
2019-01-24T21:02:45.257Z,28.40
2019-01-24T21:05:30.375Z,28.40
2019-01-24T21:08:15.442Z,22.87
2019-01-24T21:11:00.474Z,28.50
2019-01-24T21:13:45.425Z,29.57
2019-01-24T21:16:30.501Z,29.57
2019-01-24T21:19:15.615Z,28.23
2019-01-24T21:21:59.723Z,26.13
2019-01-24T21:28:02.096Z,25.47
2019-01-24T21:30:46.322Z,25.77
2019-01-24T21:33:31.336Z,27.53
2019-01-24T21:36:15.490Z,25.63
2019-01-24T21:39:00.634Z,27.70
2019-01-24T21:41:44.917Z,30.03
2019-01-24T21:44:29.005Z,25.83
2019-01-24T21:47:11.526Z,25.33
2019-01-24T21:49:56.098Z,27.17
2019-01-24T21:52:40.251Z,29.00
2019-01-24T21:55:25.363Z,27.63
2019-01-24T21:58:10.154Z,27.23
2019-01-24T22:00:54.952Z,27.37
2019-01-24T22:03:39.909Z,26.43
2019-01-24T22:06:22.286Z,25.57
2019-01-24T22:09:06.675Z,27.83
2019-01-24T22:11:51.622Z,21.87
2019-01-24T22:14:36.330Z,28.67
2019-01-24T22:17:21.336Z,25.43
2019-01-24T22:20:06.449Z,27.07
2019-01-24T22:22:50.730Z,27.63
2019-01-24T22:25:35.709Z,28.30
2019-01-24T22:28:20.746Z,22.87
2019-01-24T22:31:06.092Z,24.93
2019-01-24T22:33:50.966Z,25.87
2019-01-24T22:36:33.369Z,27.60
2019-01-24T22:39:18.046Z,26.37
2019-01-24T22:42:02.215Z,26.37
2019-01-24T22:44:47.275Z,27.47
2019-01-24T22:47:32.322Z,26.53
2019-01-24T22:50:16.593Z,25.80
2019-01-24T22:53:01.331Z,25.63
2019-01-24T22:55:46.359Z,28.20
2019-01-24T22:58:30.752Z,25.73
2019-01-24T23:01:15.897Z,26.07
2019-01-24T23:04:00.493Z,24.03
2019-01-24T23:06:45.391Z,26.40
2019-01-24T23:09:29.557Z,25.83
2019-01-24T23:12:14.562Z,25.77
2019-01-24T23:14:57.066Z,26.23
2019-01-24T23:17:48.467Z,27.20
2019-01-24T23:20:32.715Z,25.27
2019-01-24T23:23:17.149Z,25.10
2019-01-24T23:26:01.478Z,25.10
2019-01-24T23:28:45.854Z,24.83
2019-01-24T23:34:17.122Z,26.00
2019-01-24T23:37:01.271Z,25.43
2019-01-24T23:39:51.588Z,28.53
2019-01-24T23:42:32.343Z,26.20
2019-01-24T23:45:14.876Z,26.70
2019-01-24T23:48:06.315Z,26.37
2019-01-24T23:50:50.538Z,26.47
2019-01-24T23:53:35.546Z,24.93
2019-01-24T23:56:19.754Z,24.97
2019-01-24T23:59:02.540Z,23.47
